sensor_id;sensor_type;location;lat;lon;timestamp;P1;durP1;ratioP1;P2;durP2;ratioP2
4810;SDS011;2419;51.276;6.472;2023-05-14T00:01:42;11.80;;;8.53;;
4810;SDS011;2419;51.276;6.472;2023-05-14T00:04:11;13.23;;;9.40;;
4810;SDS011;2419;51.276;6.472;2023-05-14T00:06:39;11.67;;;8.93;;
4810;SDS011;2419;51.276;6.472;2023-05-14T00:09:09;13.00;;;10.00;;
4810;SDS011;2419;51.276;6.472;2023-05-14T00:11:37;11.40;;;9.40;;
4810;SDS011;2419;51.276;6.472;2023-05-14T00:14:05;14.93;;;9.10;;
4810;SDS011;2419;51.276;6.472;2023-05-14T00:16:33;14.30;;;9.33;;
4810;SDS011;2419;51.276;6.472;2023-05-14T00:19:01;14.13;;;10.50;;
4810;SDS011;2419;51.276;6.472;2023-05-14T00:21:29;14.53;;;10.90;;
4810;SDS011;2419;51.276;6.472;2023-05-14T00:23:57;13.77;;;10.53;;
4810;SDS011;2419;51.276;6.472;2023-05-14T00:26:27;13.83;;;9.93;;
4810;SDS011;2419;51.276;6.472;2023-05-14T00:28:55;14.43;;;9.70;;
4810;SDS011;2419;51.276;6.472;2023-05-14T00:31:23;15.50;;;10.20;;
4810;SDS011;2419;51.276;6.472;2023-05-14T00:33:51;17.00;;;11.50;;
4810;SDS011;2419;51.276;6.472;2023-05-14T00:36:19;15.83;;;11.33;;
4810;SDS011;2419;51.276;6.472;2023-05-14T00:38:47;15.67;;;9.90;;
4810;SDS011;2419;51.276;6.472;2023-05-14T00:41:15;12.63;;;9.30;;
4810;SDS011;2419;51.276;6.472;2023-05-14T00:43:45;11.27;;;9.07;;
4810;SDS011;2419;51.276;6.472;2023-05-14T00:46:13;12.67;;;9.90;;
4810;SDS011;2419;51.276;6.472;2023-05-14T00:48:41;14.07;;;10.33;;
4810;SDS011;2419;51.276;6.472;2023-05-14T00:51:10;12.57;;;9.57;;
4810;SDS011;2419;51.276;6.472;2023-05-14T00:53:38;14.80;;;10.43;;
4810;SDS011;2419;51.276;6.472;2023-05-14T00:56:07;14.00;;;9.80;;
4810;SDS011;2419;51.276;6.472;2023-05-14T00:58:35;13.93;;;10.87;;
4810;SDS011;2419;51.276;6.472;2023-05-14T01:01:05;14.10;;;10.43;;
4810;SDS011;2419;51.276;6.472;2023-05-14T01:03:33;14.33;;;10.30;;
4810;SDS011;2419;51.276;6.472;2023-05-14T01:06:04;15.60;;;10.30;;
4810;SDS011;2419;51.276;6.472;2023-05-14T01:08:39;14.87;;;10.67;;
4810;SDS011;2419;51.276;6.472;2023-05-14T01:11:16;16.37;;;10.50;;
4810;SDS011;2419;51.276;6.472;2023-05-14T01:13:49;24.80;;;9.90;;
4810;SDS011;2419;51.276;6.472;2023-05-14T01:16:25;14.10;;;10.10;;
4810;SDS011;2419;51.276;6.472;2023-05-14T01:18:55;13.47;;;10.90;;
4810;SDS011;2419;51.276;6.472;2023-05-14T01:21:35;16.37;;;11.67;;
4810;SDS011;2419;51.276;6.472;2023-05-14T01:24:06;14.97;;;10.40;;
4810;SDS011;2419;51.276;6.472;2023-05-14T01:26:34;13.70;;;10.73;;
4810;SDS011;2419;51.276;6.472;2023-05-14T01:29:05;21.03;;;11.53;;
4810;SDS011;2419;51.276;6.472;2023-05-14T01:31:40;21.17;;;11.23;;
4810;SDS011;2419;51.276;6.472;2023-05-14T01:34:12;17.03;;;12.53;;
4810;SDS011;2419;51.276;6.472;2023-05-14T01:36:42;16.70;;;12.17;;
4810;SDS011;2419;51.276;6.472;2023-05-14T01:39:10;16.60;;;11.87;;
4810;SDS011;2419;51.276;6.472;2023-05-14T01:41:41;15.07;;;11.53;;
4810;SDS011;2419;51.276;6.472;2023-05-14T01:44:10;16.90;;;11.80;;
4810;SDS011;2419;51.276;6.472;2023-05-14T01:46:38;21.43;;;12.17;;
4810;SDS011;2419;51.276;6.472;2023-05-14T01:49:07;17.53;;;12.67;;
4810;SDS011;2419;51.276;6.472;2023-05-14T01:51:35;18.07;;;12.80;;
4810;SDS011;2419;51.276;6.472;2023-05-14T01:54:04;17.10;;;12.60;;
4810;SDS011;2419;51.276;6.472;2023-05-14T01:56:32;18.10;;;12.03;;
4810;SDS011;2419;51.276;6.472;2023-05-14T01:59:00;17.57;;;12.97;;
4810;SDS011;2419;51.276;6.472;2023-05-14T02:01:29;19.30;;;12.33;;
4810;SDS011;2419;51.276;6.472;2023-05-14T02:03:57;20.27;;;14.60;;
4810;SDS011;2419;51.276;6.472;2023-05-14T02:06:26;20.20;;;13.50;;
4810;SDS011;2419;51.276;6.472;2023-05-14T02:08:55;18.67;;;13.27;;
4810;SDS011;2419;51.276;6.472;2023-05-14T02:11:24;18.10;;;13.33;;
4810;SDS011;2419;51.276;6.472;2023-05-14T02:13:52;19.80;;;13.03;;
4810;SDS011;2419;51.276;6.472;2023-05-14T02:16:20;18.40;;;12.70;;
4810;SDS011;2419;51.276;6.472;2023-05-14T02:18:50;19.27;;;13.37;;
4810;SDS011;2419;51.276;6.472;2023-05-14T02:21:18;18.27;;;13.13;;
4810;SDS011;2419;51.276;6.472;2023-05-14T02:23:46;14.90;;;12.00;;
4810;SDS011;2419;51.276;6.472;2023-05-14T02:26:15;18.77;;;12.90;;
4810;SDS011;2419;51.276;6.472;2023-05-14T02:28:44;20.60;;;13.63;;
4810;SDS011;2419;51.276;6.472;2023-05-14T02:31:12;19.07;;;13.37;;
4810;SDS011;2419;51.276;6.472;2023-05-14T02:33:40;19.67;;;13.97;;
4810;SDS011;2419;51.276;6.472;2023-05-14T02:36:08;21.57;;;14.27;;
4810;SDS011;2419;51.276;6.472;2023-05-14T02:38:36;22.03;;;13.80;;
4810;SDS011;2419;51.276;6.472;2023-05-14T02:41:04;21.47;;;14.17;;
4810;SDS011;2419;51.276;6.472;2023-05-14T02:43:34;19.87;;;14.03;;
4810;SDS011;2419;51.276;6.472;2023-05-14T02:46:03;19.47;;;14.10;;
4810;SDS011;2419;51.276;6.472;2023-05-14T02:48:32;20.90;;;14.57;;
4810;SDS011;2419;51.276;6.472;2023-05-14T02:51:00;19.77;;;13.40;;
4810;SDS011;2419;51.276;6.472;2023-05-14T02:53:28;20.00;;;14.57;;
4810;SDS011;2419;51.276;6.472;2023-05-14T02:55:56;22.83;;;13.07;;
4810;SDS011;2419;51.276;6.472;2023-05-14T02:58:24;21.53;;;12.83;;
4810;SDS011;2419;51.276;6.472;2023-05-14T03:00:54;20.23;;;13.77;;
4810;SDS011;2419;51.276;6.472;2023-05-14T03:03:24;19.00;;;13.23;;
4810;SDS011;2419;51.276;6.472;2023-05-14T03:05:53;17.10;;;12.63;;
4810;SDS011;2419;51.276;6.472;2023-05-14T03:08:20;16.73;;;12.30;;
4810;SDS011;2419;51.276;6.472;2023-05-14T03:10:49;18.63;;;10.90;;
4810;SDS011;2419;51.276;6.472;2023-05-14T03:13:17;11.93;;;9.67;;
4810;SDS011;2419;51.276;6.472;2023-05-14T03:15:46;19.13;;;12.40;;
4810;SDS011;2419;51.276;6.472;2023-05-14T03:18:14;14.83;;;9.93;;
4810;SDS011;2419;51.276;6.472;2023-05-14T03:20:45;27.50;;;11.57;;
4810;SDS011;2419;51.276;6.472;2023-05-14T03:23:14;16.20;;;12.07;;
4810;SDS011;2419;51.276;6.472;2023-05-14T03:25:42;17.67;;;11.67;;
4810;SDS011;2419;51.276;6.472;2023-05-14T03:28:10;18.07;;;12.23;;
4810;SDS011;2419;51.276;6.472;2023-05-14T03:30:38;17.90;;;12.20;;
4810;SDS011;2419;51.276;6.472;2023-05-14T03:33:06;16.20;;;10.80;;
4810;SDS011;2419;51.276;6.472;2023-05-14T03:35:34;15.13;;;10.70;;
4810;SDS011;2419;51.276;6.472;2023-05-14T03:38:03;16.50;;;11.30;;
4810;SDS011;2419;51.276;6.472;2023-05-14T03:40:33;15.00;;;11.20;;
4810;SDS011;2419;51.276;6.472;2023-05-14T03:43:01;15.23;;;10.87;;
4810;SDS011;2419;51.276;6.472;2023-05-14T03:45:29;17.20;;;11.87;;
4810;SDS011;2419;51.276;6.472;2023-05-14T03:47:58;17.23;;;12.77;;
4810;SDS011;2419;51.276;6.472;2023-05-14T03:50:27;16.67;;;11.90;;
4810;SDS011;2419;51.276;6.472;2023-05-14T03:52:55;16.60;;;12.10;;
4810;SDS011;2419;51.276;6.472;2023-05-14T03:55:24;14.07;;;9.07;;
4810;SDS011;2419;51.276;6.472;2023-05-14T03:57:52;14.57;;;10.20;;
4810;SDS011;2419;51.276;6.472;2023-05-14T04:00:20;15.77;;;11.40;;
4810;SDS011;2419;51.276;6.472;2023-05-14T04:02:50;15.27;;;10.73;;
4810;SDS011;2419;51.276;6.472;2023-05-14T04:05:18;14.30;;;10.23;;
4810;SDS011;2419;51.276;6.472;2023-05-14T04:07:46;13.87;;;9.70;;
4810;SDS011;2419;51.276;6.472;2023-05-14T04:10:14;14.63;;;9.93;;
4810;SDS011;2419;51.276;6.472;2023-05-14T04:12:43;14.53;;;10.53;;
4810;SDS011;2419;51.276;6.472;2023-05-14T04:15:12;17.03;;;10.57;;
4810;SDS011;2419;51.276;6.472;2023-05-14T04:17:41;18.03;;;12.30;;
4810;SDS011;2419;51.276;6.472;2023-05-14T04:20:11;17.07;;;11.53;;
4810;SDS011;2419;51.276;6.472;2023-05-14T04:22:39;24.53;;;12.63;;
4810;SDS011;2419;51.276;6.472;2023-05-14T04:25:07;17.30;;;12.40;;
4810;SDS011;2419;51.276;6.472;2023-05-14T04:27:35;17.40;;;12.20;;
4810;SDS011;2419;51.276;6.472;2023-05-14T04:30:05;18.07;;;11.97;;
4810;SDS011;2419;51.276;6.472;2023-05-14T04:32:34;19.37;;;12.70;;
4810;SDS011;2419;51.276;6.472;2023-05-14T04:35:03;20.43;;;13.20;;
4810;SDS011;2419;51.276;6.472;2023-05-14T04:37:32;18.37;;;13.97;;
4810;SDS011;2419;51.276;6.472;2023-05-14T04:39:59;20.33;;;13.83;;
4810;SDS011;2419;51.276;6.472;2023-05-14T04:42:27;22.83;;;13.40;;
4810;SDS011;2419;51.276;6.472;2023-05-14T04:44:55;19.00;;;14.30;;
4810;SDS011;2419;51.276;6.472;2023-05-14T04:47:25;20.47;;;14.63;;
4810;SDS011;2419;51.276;6.472;2023-05-14T04:49:53;22.63;;;14.63;;
4810;SDS011;2419;51.276;6.472;2023-05-14T04:52:21;20.07;;;14.17;;
4810;SDS011;2419;51.276;6.472;2023-05-14T04:54:49;16.40;;;11.97;;
4810;SDS011;2419;51.276;6.472;2023-05-14T04:57:17;14.97;;;10.20;;
4810;SDS011;2419;51.276;6.472;2023-05-14T04:59:45;12.33;;;9.50;;
4810;SDS011;2419;51.276;6.472;2023-05-14T05:02:13;11.10;;;9.10;;
4810;SDS011;2419;51.276;6.472;2023-05-14T05:04:42;11.90;;;9.00;;
4810;SDS011;2419;51.276;6.472;2023-05-14T05:07:10;11.60;;;9.17;;
4810;SDS011;2419;51.276;6.472;2023-05-14T05:09:41;10.73;;;8.43;;
4810;SDS011;2419;51.276;6.472;2023-05-14T05:12:09;10.20;;;8.23;;
4810;SDS011;2419;51.276;6.472;2023-05-14T05:14:37;9.47;;;6.93;;
4810;SDS011;2419;51.276;6.472;2023-05-14T05:17:05;8.97;;;6.40;;
4810;SDS011;2419;51.276;6.472;2023-05-14T05:19:33;7.00;;;6.30;;
4810;SDS011;2419;51.276;6.472;2023-05-14T05:22:11;7.40;;;6.17;;
4810;SDS011;2419;51.276;6.472;2023-05-14T05:24:39;7.70;;;6.50;;
4810;SDS011;2419;51.276;6.472;2023-05-14T05:27:07;6.93;;;6.00;;
4810;SDS011;2419;51.276;6.472;2023-05-14T05:29:35;7.97;;;6.63;;
4810;SDS011;2419;51.276;6.472;2023-05-14T05:32:03;10.53;;;7.37;;
4810;SDS011;2419;51.276;6.472;2023-05-14T05:34:32;10.03;;;8.27;;
4810;SDS011;2419;51.276;6.472;2023-05-14T05:37:01;11.73;;;8.07;;
4810;SDS011;2419;51.276;6.472;2023-05-14T05:39:32;10.77;;;7.53;;
4810;SDS011;2419;51.276;6.472;2023-05-14T05:42:00;12.23;;;8.60;;
4810;SDS011;2419;51.276;6.472;2023-05-14T05:44:29;9.67;;;7.57;;
4810;SDS011;2419;51.276;6.472;2023-05-14T05:46:57;9.93;;;8.60;;
4810;SDS011;2419;51.276;6.472;2023-05-14T05:49:25;8.47;;;6.90;;
4810;SDS011;2419;51.276;6.472;2023-05-14T05:51:53;11.03;;;8.20;;
4810;SDS011;2419;51.276;6.472;2023-05-14T05:54:21;14.10;;;8.73;;
4810;SDS011;2419;51.276;6.472;2023-05-14T05:56:52;13.10;;;9.83;;
4810;SDS011;2419;51.276;6.472;2023-05-14T05:59:20;10.50;;;8.43;;
4810;SDS011;2419;51.276;6.472;2023-05-14T06:01:48;12.97;;;8.97;;
4810;SDS011;2419;51.276;6.472;2023-05-14T06:04:16;10.67;;;8.93;;
4810;SDS011;2419;51.276;6.472;2023-05-14T06:06:44;12.20;;;9.13;;
4810;SDS011;2419;51.276;6.472;2023-05-14T06:09:12;8.90;;;7.83;;
4810;SDS011;2419;51.276;6.472;2023-05-14T06:11:40;16.00;;;9.57;;
4810;SDS011;2419;51.276;6.472;2023-05-14T06:14:09;10.37;;;8.20;;
4810;SDS011;2419;51.276;6.472;2023-05-14T06:16:37;10.53;;;8.60;;
4810;SDS011;2419;51.276;6.472;2023-05-14T06:19:05;9.10;;;7.77;;
4810;SDS011;2419;51.276;6.472;2023-05-14T06:21:33;15.33;;;8.77;;
4810;SDS011;2419;51.276;6.472;2023-05-14T06:24:01;12.30;;;8.90;;
4810;SDS011;2419;51.276;6.472;2023-05-14T06:26:31;10.83;;;8.57;;
4810;SDS011;2419;51.276;6.472;2023-05-14T06:28:59;14.13;;;9.33;;
4810;SDS011;2419;51.276;6.472;2023-05-14T06:31:28;16.50;;;10.30;;
4810;SDS011;2419;51.276;6.472;2023-05-14T06:33:56;17.83;;;10.20;;
4810;SDS011;2419;51.276;6.472;2023-05-14T06:36:24;14.63;;;10.23;;
4810;SDS011;2419;51.276;6.472;2023-05-14T06:38:52;13.07;;;10.83;;
4810;SDS011;2419;51.276;6.472;2023-05-14T06:41:20;14.80;;;10.90;;
4810;SDS011;2419;51.276;6.472;2023-05-14T06:43:48;13.60;;;10.47;;
4810;SDS011;2419;51.276;6.472;2023-05-14T06:46:16;13.27;;;10.10;;
4810;SDS011;2419;51.276;6.472;2023-05-14T06:48:46;14.80;;;11.17;;
4810;SDS011;2419;51.276;6.472;2023-05-14T06:51:14;13.80;;;10.20;;
4810;SDS011;2419;51.276;6.472;2023-05-14T06:53:42;15.30;;;11.10;;
4810;SDS011;2419;51.276;6.472;2023-05-14T06:56:10;13.10;;;10.23;;
4810;SDS011;2419;51.276;6.472;2023-05-14T06:58:39;15.60;;;11.50;;
4810;SDS011;2419;51.276;6.472;2023-05-14T07:01:07;13.60;;;10.17;;
4810;SDS011;2419;51.276;6.472;2023-05-14T07:03:35;22.63;;;11.60;;
4810;SDS011;2419;51.276;6.472;2023-05-14T07:06:05;15.10;;;10.83;;
4810;SDS011;2419;51.276;6.472;2023-05-14T07:08:33;17.03;;;11.73;;
4810;SDS011;2419;51.276;6.472;2023-05-14T07:11:02;16.80;;;10.83;;
4810;SDS011;2419;51.276;6.472;2023-05-14T07:13:30;15.47;;;11.60;;
4810;SDS011;2419;51.276;6.472;2023-05-14T07:15:58;15.73;;;11.27;;
4810;SDS011;2419;51.276;6.472;2023-05-14T07:18:26;16.57;;;11.53;;
4810;SDS011;2419;51.276;6.472;2023-05-14T07:20:54;16.30;;;11.70;;
4810;SDS011;2419;51.276;6.472;2023-05-14T07:23:23;15.87;;;11.13;;
4810;SDS011;2419;51.276;6.472;2023-05-14T07:25:51;18.23;;;11.70;;
4810;SDS011;2419;51.276;6.472;2023-05-14T07:28:19;16.03;;;12.20;;
4810;SDS011;2419;51.276;6.472;2023-05-14T07:30:47;13.27;;;11.40;;
4810;SDS011;2419;51.276;6.472;2023-05-14T07:33:15;15.73;;;11.83;;
4810;SDS011;2419;51.276;6.472;2023-05-14T07:35:43;15.87;;;11.73;;
4810;SDS011;2419;51.276;6.472;2023-05-14T07:38:11;15.93;;;11.73;;
4810;SDS011;2419;51.276;6.472;2023-05-14T07:40:40;16.40;;;11.60;;
4810;SDS011;2419;51.276;6.472;2023-05-14T07:43:08;13.40;;;10.90;;
4810;SDS011;2419;51.276;6.472;2023-05-14T07:45:36;16.00;;;10.90;;
4810;SDS011;2419;51.276;6.472;2023-05-14T07:48:05;21.10;;;12.50;;
4810;SDS011;2419;51.276;6.472;2023-05-14T07:50:33;16.40;;;12.43;;
4810;SDS011;2419;51.276;6.472;2023-05-14T07:53:01;17.07;;;11.57;;
4810;SDS011;2419;51.276;6.472;2023-05-14T07:55:29;14.07;;;11.87;;
4810;SDS011;2419;51.276;6.472;2023-05-14T07:57:58;13.87;;;11.70;;
4810;SDS011;2419;51.276;6.472;2023-05-14T08:00:26;14.90;;;11.30;;
4810;SDS011;2419;51.276;6.472;2023-05-14T08:02:54;13.83;;;11.37;;
4810;SDS011;2419;51.276;6.472;2023-05-14T08:05:23;15.83;;;10.40;;
4810;SDS011;2419;51.276;6.472;2023-05-14T08:07:51;13.53;;;11.03;;
4810;SDS011;2419;51.276;6.472;2023-05-14T08:10:19;15.10;;;11.07;;
4810;SDS011;2419;51.276;6.472;2023-05-14T08:12:48;18.87;;;10.27;;
4810;SDS011;2419;51.276;6.472;2023-05-14T08:15:17;12.33;;;10.00;;
4810;SDS011;2419;51.276;6.472;2023-05-14T08:17:45;13.07;;;10.60;;
4810;SDS011;2419;51.276;6.472;2023-05-14T08:20:13;10.97;;;9.77;;
4810;SDS011;2419;51.276;6.472;2023-05-14T08:22:41;12.07;;;9.27;;
4810;SDS011;2419;51.276;6.472;2023-05-14T08:25:09;14.00;;;10.07;;
4810;SDS011;2419;51.276;6.472;2023-05-14T08:27:37;14.37;;;9.90;;
4810;SDS011;2419;51.276;6.472;2023-05-14T08:30:06;12.73;;;9.77;;
4810;SDS011;2419;51.276;6.472;2023-05-14T08:32:36;11.50;;;9.13;;
4810;SDS011;2419;51.276;6.472;2023-05-14T08:35:05;11.37;;;8.47;;
4810;SDS011;2419;51.276;6.472;2023-05-14T08:37:33;9.10;;;7.80;;
4810;SDS011;2419;51.276;6.472;2023-05-14T08:40:01;10.10;;;8.80;;
4810;SDS011;2419;51.276;6.472;2023-05-14T08:42:29;15.30;;;9.73;;
4810;SDS011;2419;51.276;6.472;2023-05-14T08:44:59;11.63;;;9.50;;
4810;SDS011;2419;51.276;6.472;2023-05-14T08:47:28;10.43;;;8.70;;
4810;SDS011;2419;51.276;6.472;2023-05-14T08:50:00;11.60;;;9.47;;
4810;SDS011;2419;51.276;6.472;2023-05-14T08:52:29;12.53;;;10.43;;
4810;SDS011;2419;51.276;6.472;2023-05-14T08:54:59;10.63;;;8.97;;
4810;SDS011;2419;51.276;6.472;2023-05-14T08:57:29;11.53;;;9.73;;
4810;SDS011;2419;51.276;6.472;2023-05-14T08:59:59;17.23;;;9.67;;
4810;SDS011;2419;51.276;6.472;2023-05-14T09:02:33;11.10;;;8.40;;
4810;SDS011;2419;51.276;6.472;2023-05-14T09:05:03;9.70;;;8.10;;
4810;SDS011;2419;51.276;6.472;2023-05-14T09:07:32;9.30;;;8.30;;
4810;SDS011;2419;51.276;6.472;2023-05-14T09:10:00;9.93;;;8.47;;
4810;SDS011;2419;51.276;6.472;2023-05-14T09:12:29;11.83;;;7.33;;
4810;SDS011;2419;51.276;6.472;2023-05-14T09:14:57;9.23;;;7.43;;
4810;SDS011;2419;51.276;6.472;2023-05-14T09:17:25;12.93;;;9.37;;
4810;SDS011;2419;51.276;6.472;2023-05-14T09:19:54;12.90;;;7.70;;
4810;SDS011;2419;51.276;6.472;2023-05-14T09:22:27;11.30;;;8.60;;
4810;SDS011;2419;51.276;6.472;2023-05-14T09:25:01;11.73;;;9.30;;
4810;SDS011;2419;51.276;6.472;2023-05-14T09:27:30;12.80;;;7.97;;
4810;SDS011;2419;51.276;6.472;2023-05-14T09:30:06;13.07;;;9.00;;
4810;SDS011;2419;51.276;6.472;2023-05-14T09:32:36;9.90;;;8.07;;
4810;SDS011;2419;51.276;6.472;2023-05-14T09:35:09;10.60;;;8.50;;
4810;SDS011;2419;51.276;6.472;2023-05-14T09:37:41;9.43;;;8.30;;
4810;SDS011;2419;51.276;6.472;2023-05-14T09:40:10;8.90;;;8.00;;
4810;SDS011;2419;51.276;6.472;2023-05-14T09:42:38;8.10;;;6.77;;
4810;SDS011;2419;51.276;6.472;2023-05-14T09:45:09;10.40;;;8.30;;
4810;SDS011;2419;51.276;6.472;2023-05-14T09:47:38;10.03;;;7.70;;
4810;SDS011;2419;51.276;6.472;2023-05-14T09:50:07;18.10;;;9.13;;
4810;SDS011;2419;51.276;6.472;2023-05-14T09:52:37;12.40;;;9.07;;
4810;SDS011;2419;51.276;6.472;2023-05-14T09:55:07;12.20;;;8.83;;
4810;SDS011;2419;51.276;6.472;2023-05-14T09:57:36;9.90;;;8.90;;
4810;SDS011;2419;51.276;6.472;2023-05-14T10:00:04;14.30;;;9.80;;
4810;SDS011;2419;51.276;6.472;2023-05-14T10:02:35;11.63;;;9.40;;
4810;SDS011;2419;51.276;6.472;2023-05-14T10:05:06;11.40;;;9.00;;
4810;SDS011;2419;51.276;6.472;2023-05-14T10:07:36;11.10;;;8.60;;
4810;SDS011;2419;51.276;6.472;2023-05-14T10:10:09;10.67;;;8.13;;
4810;SDS011;2419;51.276;6.472;2023-05-14T10:12:41;10.40;;;9.37;;
4810;SDS011;2419;51.276;6.472;2023-05-14T10:15:16;8.97;;;8.00;;
4810;SDS011;2419;51.276;6.472;2023-05-14T10:17:47;8.50;;;7.38;;
4810;SDS011;2419;51.276;6.472;2023-05-14T10:20:19;9.15;;;8.25;;
4810;SDS011;2419;51.276;6.472;2023-05-14T10:22:49;11.63;;;8.87;;
4810;SDS011;2419;51.276;6.472;2023-05-14T10:25:19;15.90;;;8.50;;
4810;SDS011;2419;51.276;6.472;2023-05-14T10:27:48;11.63;;;9.70;;
4810;SDS011;2419;51.276;6.472;2023-05-14T10:30:16;10.13;;;8.35;;
4810;SDS011;2419;51.276;6.472;2023-05-14T10:32:48;10.17;;;8.50;;
4810;SDS011;2419;51.276;6.472;2023-05-14T10:35:21;12.23;;;9.40;;
4810;SDS011;2419;51.276;6.472;2023-05-14T10:37:51;9.40;;;7.37;;
4810;SDS011;2419;51.276;6.472;2023-05-14T10:40:22;10.53;;;7.67;;
4810;SDS011;2419;51.276;6.472;2023-05-14T10:42:51;10.30;;;7.70;;
4810;SDS011;2419;51.276;6.472;2023-05-14T10:45:20;10.80;;;7.23;;
4810;SDS011;2419;51.276;6.472;2023-05-14T10:47:50;11.17;;;8.30;;
4810;SDS011;2419;51.276;6.472;2023-05-14T10:50:18;9.67;;;7.40;;
4810;SDS011;2419;51.276;6.472;2023-05-14T10:52:49;10.32;;;6.88;;
4810;SDS011;2419;51.276;6.472;2023-05-14T10:55:22;8.00;;;6.35;;
4810;SDS011;2419;51.276;6.472;2023-05-14T10:57:51;8.33;;;6.43;;
4810;SDS011;2419;51.276;6.472;2023-05-14T11:00:19;6.50;;;5.73;;
4810;SDS011;2419;51.276;6.472;2023-05-14T11:02:54;8.70;;;6.23;;
4810;SDS011;2419;51.276;6.472;2023-05-14T11:05:24;4.95;;;4.45;;
4810;SDS011;2419;51.276;6.472;2023-05-14T11:07:53;11.80;;;6.27;;
4810;SDS011;2419;51.276;6.472;2023-05-14T11:10:25;7.60;;;5.47;;
4810;SDS011;2419;51.276;6.472;2023-05-14T11:12:55;7.23;;;5.37;;
4810;SDS011;2419;51.276;6.472;2023-05-14T11:15:24;10.43;;;4.80;;
4810;SDS011;2419;51.276;6.472;2023-05-14T11:17:53;6.03;;;4.37;;
4810;SDS011;2419;51.276;6.472;2023-05-14T11:20:22;10.20;;;5.30;;
4810;SDS011;2419;51.276;6.472;2023-05-14T11:22:51;5.33;;;4.83;;
4810;SDS011;2419;51.276;6.472;2023-05-14T11:25:19;7.13;;;4.40;;
4810;SDS011;2419;51.276;6.472;2023-05-14T11:27:49;6.07;;;4.70;;
4810;SDS011;2419;51.276;6.472;2023-05-14T11:30:21;5.77;;;4.67;;
4810;SDS011;2419;51.276;6.472;2023-05-14T11:32:50;5.60;;;4.30;;
4810;SDS011;2419;51.276;6.472;2023-05-14T11:35:19;9.20;;;4.73;;
4810;SDS011;2419;51.276;6.472;2023-05-14T11:37:50;4.97;;;3.90;;
4810;SDS011;2419;51.276;6.472;2023-05-14T11:40:19;8.07;;;5.00;;
4810;SDS011;2419;51.276;6.472;2023-05-14T11:42:50;6.30;;;5.60;;
4810;SDS011;2419;51.276;6.472;2023-05-14T11:45:23;9.03;;;5.43;;
4810;SDS011;2419;51.276;6.472;2023-05-14T11:47:52;4.80;;;4.40;;
4810;SDS011;2419;51.276;6.472;2023-05-14T11:50:20;6.57;;;5.00;;
4810;SDS011;2419;51.276;6.472;2023-05-14T11:52:49;8.10;;;4.63;;
4810;SDS011;2419;51.276;6.472;2023-05-14T11:55:17;4.80;;;3.90;;
4810;SDS011;2419;51.276;6.472;2023-05-14T11:57:46;7.73;;;3.90;;
4810;SDS011;2419;51.276;6.472;2023-05-14T12:00:15;4.17;;;3.30;;
4810;SDS011;2419;51.276;6.472;2023-05-14T12:02:47;3.77;;;3.23;;
4810;SDS011;2419;51.276;6.472;2023-05-14T12:05:16;7.10;;;4.17;;
4810;SDS011;2419;51.276;6.472;2023-05-14T12:07:44;3.87;;;3.50;;
4810;SDS011;2419;51.276;6.472;2023-05-14T12:10:23;7.73;;;3.50;;
4810;SDS011;2419;51.276;6.472;2023-05-14T12:12:51;4.90;;;3.00;;
4810;SDS011;2419;51.276;6.472;2023-05-14T12:15:19;9.93;;;3.17;;
4810;SDS011;2419;51.276;6.472;2023-05-14T12:17:48;3.80;;;3.23;;
4810;SDS011;2419;51.276;6.472;2023-05-14T12:20:17;4.97;;;3.07;;
4810;SDS011;2419;51.276;6.472;2023-05-14T12:22:45;3.70;;;2.80;;
4810;SDS011;2419;51.276;6.472;2023-05-14T12:25:13;5.90;;;3.67;;
4810;SDS011;2419;51.276;6.472;2023-05-14T12:27:44;4.27;;;3.17;;
4810;SDS011;2419;51.276;6.472;2023-05-14T12:30:12;4.10;;;3.00;;
4810;SDS011;2419;51.276;6.472;2023-05-14T12:32:43;3.00;;;2.70;;
4810;SDS011;2419;51.276;6.472;2023-05-14T12:35:11;3.60;;;2.90;;
4810;SDS011;2419;51.276;6.472;2023-05-14T12:37:39;2.60;;;2.40;;
4810;SDS011;2419;51.276;6.472;2023-05-14T12:40:08;3.80;;;2.53;;
4810;SDS011;2419;51.276;6.472;2023-05-14T12:42:36;3.77;;;3.07;;
4810;SDS011;2419;51.276;6.472;2023-05-14T12:45:06;4.40;;;2.87;;
4810;SDS011;2419;51.276;6.472;2023-05-14T12:47:35;2.27;;;2.07;;
4810;SDS011;2419;51.276;6.472;2023-05-14T12:50:03;2.13;;;1.93;;
4810;SDS011;2419;51.276;6.472;2023-05-14T12:52:32;2.87;;;2.40;;
4810;SDS011;2419;51.276;6.472;2023-05-14T12:55:05;2.90;;;2.40;;
4810;SDS011;2419;51.276;6.472;2023-05-14T12:57:34;2.90;;;2.53;;
4810;SDS011;2419;51.276;6.472;2023-05-14T13:00:02;2.80;;;2.50;;
4810;SDS011;2419;51.276;6.472;2023-05-14T13:02:34;2.60;;;2.40;;
4810;SDS011;2419;51.276;6.472;2023-05-14T13:05:08;3.10;;;2.83;;
4810;SDS011;2419;51.276;6.472;2023-05-14T13:07:36;2.70;;;2.43;;
4810;SDS011;2419;51.276;6.472;2023-05-14T13:10:05;2.80;;;2.50;;
4810;SDS011;2419;51.276;6.472;2023-05-14T13:12:34;3.77;;;2.87;;
4810;SDS011;2419;51.276;6.472;2023-05-14T13:15:04;3.10;;;2.80;;
4810;SDS011;2419;51.276;6.472;2023-05-14T13:17:32;4.90;;;2.37;;
4810;SDS011;2419;51.276;6.472;2023-05-14T13:20:02;2.17;;;1.90;;
4810;SDS011;2419;51.276;6.472;2023-05-14T13:22:31;2.40;;;2.13;;
4810;SDS011;2419;51.276;6.472;2023-05-14T13:24:59;3.57;;;1.83;;
4810;SDS011;2419;51.276;6.472;2023-05-14T13:27:27;2.60;;;2.23;;
4810;SDS011;2419;51.276;6.472;2023-05-14T13:29:55;2.50;;;2.30;;
4810;SDS011;2419;51.276;6.472;2023-05-14T13:32:24;3.03;;;2.33;;
4810;SDS011;2419;51.276;6.472;2023-05-14T13:34:53;2.40;;;2.20;;
4810;SDS011;2419;51.276;6.472;2023-05-14T13:37:21;4.17;;;2.00;;
4810;SDS011;2419;51.276;6.472;2023-05-14T13:39:50;4.57;;;2.30;;
4810;SDS011;2419;51.276;6.472;2023-05-14T13:42:18;3.23;;;2.43;;
4810;SDS011;2419;51.276;6.472;2023-05-14T13:44:46;4.10;;;2.57;;
4810;SDS011;2419;51.276;6.472;2023-05-14T13:47:14;4.13;;;2.30;;
4810;SDS011;2419;51.276;6.472;2023-05-14T13:49:42;4.73;;;2.80;;
4810;SDS011;2419;51.276;6.472;2023-05-14T13:52:11;2.50;;;2.30;;
4810;SDS011;2419;51.276;6.472;2023-05-14T13:54:39;3.10;;;2.47;;
4810;SDS011;2419;51.276;6.472;2023-05-14T13:57:07;3.93;;;2.73;;
4810;SDS011;2419;51.276;6.472;2023-05-14T13:59:35;2.77;;;2.50;;
4810;SDS011;2419;51.276;6.472;2023-05-14T14:02:03;3.23;;;2.20;;
4810;SDS011;2419;51.276;6.472;2023-05-14T14:04:31;5.10;;;2.23;;
4810;SDS011;2419;51.276;6.472;2023-05-14T14:07:00;3.03;;;2.73;;
4810;SDS011;2419;51.276;6.472;2023-05-14T14:09:29;2.93;;;2.33;;
4810;SDS011;2419;51.276;6.472;2023-05-14T14:12:00;5.80;;;2.70;;
4810;SDS011;2419;51.276;6.472;2023-05-14T14:14:29;3.60;;;2.40;;
4810;SDS011;2419;51.276;6.472;2023-05-14T14:16:57;4.70;;;2.60;;
4810;SDS011;2419;51.276;6.472;2023-05-14T14:19:25;4.13;;;2.63;;
4810;SDS011;2419;51.276;6.472;2023-05-14T14:21:53;5.80;;;2.60;;
4810;SDS011;2419;51.276;6.472;2023-05-14T14:24:21;3.03;;;2.17;;
4810;SDS011;2419;51.276;6.472;2023-05-14T14:26:50;4.13;;;2.50;;
4810;SDS011;2419;51.276;6.472;2023-05-14T14:29:18;2.97;;;2.50;;
4810;SDS011;2419;51.276;6.472;2023-05-14T14:31:49;2.60;;;2.40;;
4810;SDS011;2419;51.276;6.472;2023-05-14T14:34:17;3.13;;;2.43;;
4810;SDS011;2419;51.276;6.472;2023-05-14T14:36:45;5.47;;;2.70;;
4810;SDS011;2419;51.276;6.472;2023-05-14T14:39:13;2.70;;;2.30;;
4810;SDS011;2419;51.276;6.472;2023-05-14T14:41:41;5.43;;;2.30;;
4810;SDS011;2419;51.276;6.472;2023-05-14T14:44:10;3.73;;;2.30;;
4810;SDS011;2419;51.276;6.472;2023-05-14T14:46:38;5.27;;;2.53;;
4810;SDS011;2419;51.276;6.472;2023-05-14T14:49:08;3.97;;;2.73;;
4810;SDS011;2419;51.276;6.472;2023-05-14T14:51:36;3.30;;;2.63;;
4810;SDS011;2419;51.276;6.472;2023-05-14T14:54:04;2.70;;;2.50;;
4810;SDS011;2419;51.276;6.472;2023-05-14T14:56:32;5.50;;;2.50;;
4810;SDS011;2419;51.276;6.472;2023-05-14T14:59:00;3.83;;;2.43;;
4810;SDS011;2419;51.276;6.472;2023-05-14T15:01:29;2.30;;;2.10;;
4810;SDS011;2419;51.276;6.472;2023-05-14T15:03:58;5.83;;;2.50;;
4810;SDS011;2419;51.276;6.472;2023-05-14T15:06:26;2.17;;;1.97;;
4810;SDS011;2419;51.276;6.472;2023-05-14T15:08:54;2.90;;;2.60;;
4810;SDS011;2419;51.276;6.472;2023-05-14T15:11:22;8.13;;;3.00;;